sensor_id;sensor_type;location;lat;lon;timestamp;pressure;altitude;pressure_sealevel;temperature;humidity
65019;BME280;66069;51.164;-114.452;2023-02-28T00:00:13;86478.47;;;15.53;37.12
65019;BME280;66069;51.164;-114.452;2023-02-28T00:02:41;86459.88;;;15.31;37.11
65019;BME280;66069;51.164;-114.452;2023-02-28T00:05:09;86486.50;;;15.49;37.13
65019;BME280;66069;51.164;-114.452;2023-02-28T00:07:37;86482.38;;;15.48;37.17
65019;BME280;66069;51.164;-114.452;2023-02-28T00:10:05;86475.72;;;15.44;37.20
65019;BME280;66069;51.164;-114.452;2023-02-28T00:12:35;86493.38;;;15.47;37.21
65019;BME280;66069;51.164;-114.452;2023-02-28T00:15:05;86489.13;;;15.49;37.30
65019;BME280;66069;51.164;-114.452;2023-02-28T00:17:31;86468.84;;;15.33;37.44
65019;BME280;66069;51.164;-114.452;2023-02-28T00:19:58;86478.13;;;15.38;37.28
65019;BME280;66069;51.164;-114.452;2023-02-28T00:22:42;86462.72;;;15.24;37.13
65019;BME280;66069;51.164;-114.452;2023-02-28T00:25:10;86496.41;;;15.45;37.08
65019;BME280;66069;51.164;-114.452;2023-02-28T00:27:38;86496.84;;;15.44;37.17
65019;BME280;66069;51.164;-114.452;2023-02-28T00:30:07;86497.59;;;15.44;37.24
65019;BME280;66069;51.164;-114.452;2023-02-28T00:32:33;86474.22;;;15.30;37.30
65019;BME280;66069;51.164;-114.452;2023-02-28T00:35:01;86489.34;;;15.42;37.32
65019;BME280;66069;51.164;-114.452;2023-02-28T00:37:27;86479.81;;;15.32;37.20
65019;BME280;66069;51.164;-114.452;2023-02-28T00:39:54;86473.59;;;15.26;37.20
65019;BME280;66069;51.164;-114.452;2023-02-28T00:42:20;86497.78;;;15.37;37.13
65019;BME280;66069;51.164;-114.452;2023-02-28T00:44:46;86491.97;;;15.29;37.11
65019;BME280;66069;51.164;-114.452;2023-02-28T00:47:13;86492.59;;;15.33;37.07
65019;BME280;66069;51.164;-114.452;2023-02-28T00:49:40;86498.81;;;15.27;37.07
65019;BME280;66069;51.164;-114.452;2023-02-28T00:52:06;86504.31;;;15.32;37.38
65019;BME280;66069;51.164;-114.452;2023-02-28T00:54:38;86505.81;;;15.33;36.99
65019;BME280;66069;51.164;-114.452;2023-02-28T00:57:04;86509.50;;;15.36;37.10
65019;BME280;66069;51.164;-114.452;2023-02-28T00:59:30;86509.94;;;15.34;37.35
65019;BME280;66069;51.164;-114.452;2023-02-28T01:01:57;86492.50;;;15.24;37.06
65019;BME280;66069;51.164;-114.452;2023-02-28T01:04:23;86496.19;;;15.27;37.00
65019;BME280;66069;51.164;-114.452;2023-02-28T01:06:49;86503.06;;;15.24;37.11
65019;BME280;66069;51.164;-114.452;2023-02-28T01:09:19;86498.94;;;15.23;36.93
65019;BME280;66069;51.164;-114.452;2023-02-28T01:11:45;86497.78;;;15.24;37.04
65019;BME280;66069;51.164;-114.452;2023-02-28T01:14:14;86515.75;;;15.29;37.20
65019;BME280;66069;51.164;-114.452;2023-02-28T01:16:41;86508.41;;;15.21;37.16
65019;BME280;66069;51.164;-114.452;2023-02-28T01:19:07;86512.97;;;15.20;37.23
65019;BME280;66069;51.164;-114.452;2023-02-28T01:21:34;86523.31;;;15.27;37.08
65019;BME280;66069;51.164;-114.452;2023-02-28T01:24:02;86513.69;;;15.21;37.32
65019;BME280;66069;51.164;-114.452;2023-02-28T01:26:28;86515.59;;;15.20;37.12
65019;BME280;66069;51.164;-114.452;2023-02-28T01:28:54;86502.91;;;15.15;37.24
65019;BME280;66069;51.164;-114.452;2023-02-28T01:31:22;86519.94;;;15.27;37.89
65019;BME280;66069;51.164;-114.452;2023-02-28T01:33:48;86505.78;;;15.21;38.20
65019;BME280;66069;51.164;-114.452;2023-02-28T01:36:17;86522.91;;;15.29;38.50
65019;BME280;66069;51.164;-114.452;2023-02-28T01:38:45;86522.06;;;15.32;38.64
65019;BME280;66069;51.164;-114.452;2023-02-28T01:41:23;86509.16;;;15.21;38.46
65019;BME280;66069;51.164;-114.452;2023-02-28T01:43:52;86517.53;;;15.32;38.37
65019;BME280;66069;51.164;-114.452;2023-02-28T01:46:39;86522.72;;;15.36;38.55
65019;BME280;66069;51.164;-114.452;2023-02-28T01:49:13;86511.19;;;15.30;38.74
65019;BME280;66069;51.164;-114.452;2023-02-28T01:51:51;86507.09;;;15.29;38.68
65019;BME280;66069;51.164;-114.452;2023-02-28T01:54:32;86515.22;;;15.34;38.92
65019;BME280;66069;51.164;-114.452;2023-02-28T01:57:12;86513.41;;;15.31;39.08
65019;BME280;66069;51.164;-114.452;2023-02-28T02:02:21;86514.06;;;15.35;38.87
65019;BME280;66069;51.164;-114.452;2023-02-28T02:04:52;86513.66;;;15.50;38.89
65019;BME280;66069;51.164;-114.452;2023-02-28T02:07:21;86501.38;;;15.43;39.05
65019;BME280;66069;51.164;-114.452;2023-02-28T02:09:49;86489.88;;;15.37;39.04
65019;BME280;66069;51.164;-114.452;2023-02-28T02:15:49;86479.72;;;15.35;39.78
65019;BME280;66069;51.164;-114.452;2023-02-28T02:18:40;86505.50;;;15.57;39.55
65019;BME280;66069;51.164;-114.452;2023-02-28T02:24:20;86500.88;;;15.61;39.68
65019;BME280;66069;51.164;-114.452;2023-02-28T02:46:51;86476.47;;;15.70;40.17
65019;BME280;66069;51.164;-114.452;2023-02-28T02:49:22;86483.44;;;15.76;40.08
65019;BME280;66069;51.164;-114.452;2023-02-28T02:51:51;86471.41;;;15.63;40.15
65019;BME280;66069;51.164;-114.452;2023-02-28T02:54:32;86468.34;;;15.64;40.08
65019;BME280;66069;51.164;-114.452;2023-02-28T02:57:04;86462.97;;;15.68;40.21
65019;BME280;66069;51.164;-114.452;2023-02-28T02:59:35;86448.47;;;15.59;40.19
65019;BME280;66069;51.164;-114.452;2023-02-28T03:02:06;86444.66;;;15.60;40.54
65019;BME280;66069;51.164;-114.452;2023-02-28T03:04:40;86476.38;;;15.86;40.65
65019;BME280;66069;51.164;-114.452;2023-02-28T03:07:08;86453.13;;;15.68;40.56
65019;BME280;66069;51.164;-114.452;2023-02-28T03:09:35;86481.66;;;15.86;40.35
65019;BME280;66069;51.164;-114.452;2023-02-28T03:12:02;86478.91;;;15.89;40.22
65019;BME280;66069;51.164;-114.452;2023-02-28T03:17:54;86473.81;;;15.95;40.55
65019;BME280;66069;51.164;-114.452;2023-02-28T03:25:52;86472.56;;;16.00;40.66
65019;BME280;66069;51.164;-114.452;2023-02-28T03:28:31;86469.47;;;16.01;40.69
65019;BME280;66069;51.164;-114.452;2023-02-28T03:31:09;86463.97;;;15.96;40.67
65019;BME280;66069;51.164;-114.452;2023-02-28T03:33:47;86466.00;;;16.04;40.78
65019;BME280;66069;51.164;-114.452;2023-02-28T03:36:25;86461.00;;;16.06;40.71
65019;BME280;66069;51.164;-114.452;2023-02-28T03:38:59;86453.81;;;16.07;40.69
65019;BME280;66069;51.164;-114.452;2023-02-28T03:44:10;86446.22;;;16.09;40.76
65019;BME280;66069;51.164;-114.452;2023-02-28T03:47:07;86449.81;;;16.15;40.81
65019;BME280;66069;51.164;-114.452;2023-02-28T03:49:49;86440.31;;;16.05;40.77
65019;BME280;66069;51.164;-114.452;2023-02-28T03:52:18;86442.94;;;16.05;40.80
65019;BME280;66069;51.164;-114.452;2023-02-28T03:54:50;86446.63;;;16.07;40.67
65019;BME280;66069;51.164;-114.452;2023-02-28T04:00:08;86443.00;;;16.14;40.82
65019;BME280;66069;51.164;-114.452;2023-02-28T04:02:36;86444.09;;;16.17;40.92
65019;BME280;66069;51.164;-114.452;2023-02-28T04:05:02;86437.31;;;16.15;40.71
65019;BME280;66069;51.164;-114.452;2023-02-28T04:07:30;86420.19;;;16.07;40.94
65019;BME280;66069;51.164;-114.452;2023-02-28T04:09:57;86442.19;;;16.17;40.75
65019;BME280;66069;51.164;-114.452;2023-02-28T04:12:23;86438.69;;;16.07;40.67
65019;BME280;66069;51.164;-114.452;2023-02-28T04:14:50;86452.63;;;16.21;40.70
65019;BME280;66069;51.164;-114.452;2023-02-28T04:17:16;86451.28;;;16.16;40.54
65019;BME280;66069;51.164;-114.452;2023-02-28T04:19:43;86471.66;;;16.28;40.70
65019;BME280;66069;51.164;-114.452;2023-02-28T04:22:09;86467.41;;;16.31;40.61
65019;BME280;66069;51.164;-114.452;2023-02-28T04:24:36;86450.63;;;16.25;40.64
65019;BME280;66069;51.164;-114.452;2023-02-28T04:27:03;86450.50;;;16.28;40.88
65019;BME280;66069;51.164;-114.452;2023-02-28T04:29:32;86433.72;;;16.22;40.88
65019;BME280;66069;51.164;-114.452;2023-02-28T04:31:59;86415.44;;;16.15;40.87
65019;BME280;66069;51.164;-114.452;2023-02-28T04:34:28;86434.22;;;16.30;40.98
65019;BME280;66069;51.164;-114.452;2023-02-28T04:36:55;86425.63;;;16.26;40.52
65019;BME280;66069;51.164;-114.452;2023-02-28T04:39:23;86421.09;;;16.26;40.57
65019;BME280;66069;51.164;-114.452;2023-02-28T04:41:50;86422.69;;;16.24;40.67
65019;BME280;66069;51.164;-114.452;2023-02-28T04:44:17;86451.13;;;16.32;40.62
65019;BME280;66069;51.164;-114.452;2023-02-28T04:46:44;86441.72;;;16.31;40.75
65019;BME280;66069;51.164;-114.452;2023-02-28T04:49:12;86451.94;;;16.42;40.79
65019;BME280;66069;51.164;-114.452;2023-02-28T04:51:39;86424.47;;;16.27;40.58
65019;BME280;66069;51.164;-114.452;2023-02-28T04:54:05;86443.56;;;16.43;40.60
65019;BME280;66069;51.164;-114.452;2023-02-28T04:56:32;86438.28;;;16.43;40.78
65019;BME280;66069;51.164;-114.452;2023-02-28T04:58:59;86387.44;;;16.05;40.39
65019;BME280;66069;51.164;-114.452;2023-02-28T05:01:28;86394.69;;;16.13;40.44
65019;BME280;66069;51.164;-114.452;2023-02-28T05:03:56;86425.72;;;16.35;40.45
65019;BME280;66069;51.164;-114.452;2023-02-28T05:06:25;86455.22;;;16.46;40.29
65019;BME280;66069;51.164;-114.452;2023-02-28T05:08:52;86454.16;;;16.43;40.41
65019;BME280;66069;51.164;-114.452;2023-02-28T05:11:20;86435.56;;;16.34;40.18
65019;BME280;66069;51.164;-114.452;2023-02-28T05:13:48;86445.38;;;16.47;40.14
65019;BME280;66069;51.164;-114.452;2023-02-28T05:16:15;86424.56;;;16.36;40.18
65019;BME280;66069;51.164;-114.452;2023-02-28T05:18:42;86452.97;;;16.45;40.22
65019;BME280;66069;51.164;-114.452;2023-02-28T05:21:38;86415.81;;;16.26;40.11
65019;BME280;66069;51.164;-114.452;2023-02-28T05:24:07;86431.13;;;16.31;40.33
65019;BME280;66069;51.164;-114.452;2023-02-28T05:26:40;86454.47;;;16.46;40.09
65019;BME280;66069;51.164;-114.452;2023-02-28T05:29:09;86451.50;;;16.43;40.02
65019;BME280;66069;51.164;-114.452;2023-02-28T05:31:36;86448.22;;;16.39;40.00
65019;BME280;66069;51.164;-114.452;2023-02-28T05:34:03;86417.50;;;16.20;39.95
65019;BME280;66069;51.164;-114.452;2023-02-28T05:36:32;86430.53;;;16.27;39.93
65019;BME280;66069;51.164;-114.452;2023-02-28T05:38:59;86444.97;;;16.35;39.86
65019;BME280;66069;51.164;-114.452;2023-02-28T05:41:25;86438.03;;;16.29;39.98
65019;BME280;66069;51.164;-114.452;2023-02-28T05:43:51;86425.53;;;16.29;39.82
65019;BME280;66069;51.164;-114.452;2023-02-28T05:46:18;86427.88;;;16.27;39.79
65019;BME280;66069;51.164;-114.452;2023-02-28T05:48:47;86446.22;;;16.43;39.77
65019;BME280;66069;51.164;-114.452;2023-02-28T05:51:14;86452.69;;;16.42;39.60
65019;BME280;66069;51.164;-114.452;2023-02-28T05:53:41;86440.28;;;16.39;39.70
65019;BME280;66069;51.164;-114.452;2023-02-28T05:56:07;86440.19;;;16.43;39.70
65019;BME280;66069;51.164;-114.452;2023-02-28T05:58:33;86424.13;;;16.37;39.56
65019;BME280;66069;51.164;-114.452;2023-02-28T06:01:18;86428.25;;;16.38;39.63
65019;BME280;66069;51.164;-114.452;2023-02-28T06:03:45;86400.06;;;16.23;39.53
65019;BME280;66069;51.164;-114.452;2023-02-28T06:06:11;86394.44;;;16.21;39.47
65019;BME280;66069;51.164;-114.452;2023-02-28T06:08:37;86412.75;;;16.28;39.48
65019;BME280;66069;51.164;-114.452;2023-02-28T06:11:04;86405.22;;;16.26;39.45
65019;BME280;66069;51.164;-114.452;2023-02-28T06:13:31;86389.59;;;16.19;39.43
65019;BME280;66069;51.164;-114.452;2023-02-28T06:16:01;86410.59;;;16.35;39.48
65019;BME280;66069;51.164;-114.452;2023-02-28T06:18:27;86377.25;;;16.16;39.38
65019;BME280;66069;51.164;-114.452;2023-02-28T06:20:54;86395.72;;;16.29;39.72
65019;BME280;66069;51.164;-114.452;2023-02-28T06:23:22;86411.03;;;16.34;39.61
65019;BME280;66069;51.164;-114.452;2023-02-28T06:25:48;86399.00;;;16.20;39.18
65019;BME280;66069;51.164;-114.452;2023-02-28T06:28:15;86389.94;;;16.21;39.44
65019;BME280;66069;51.164;-114.452;2023-02-28T06:30:41;86387.69;;;16.20;39.49
65019;BME280;66069;51.164;-114.452;2023-02-28T06:33:08;86374.06;;;16.08;39.40
65019;BME280;66069;51.164;-114.452;2023-02-28T06:35:35;86399.34;;;16.22;39.41
65019;BME280;66069;51.164;-114.452;2023-02-28T06:38:01;86393.31;;;16.22;39.40
65019;BME280;66069;51.164;-114.452;2023-02-28T06:40:27;86373.66;;;16.10;39.45
65019;BME280;66069;51.164;-114.452;2023-02-28T06:42:54;86393.41;;;16.18;39.16
65019;BME280;66069;51.164;-114.452;2023-02-28T06:45:20;86404.09;;;16.27;39.35
65019;BME280;66069;51.164;-114.452;2023-02-28T06:47:46;86388.38;;;16.11;39.33
65019;BME280;66069;51.164;-114.452;2023-02-28T06:50:18;86409.03;;;16.25;39.13
65019;BME280;66069;51.164;-114.452;2023-02-28T06:52:47;86382.56;;;16.03;39.34
65019;BME280;66069;51.164;-114.452;2023-02-28T06:55:14;86399.25;;;16.13;39.29
65019;BME280;66069;51.164;-114.452;2023-02-28T06:57:40;86425.78;;;16.22;39.28
65019;BME280;66069;51.164;-114.452;2023-02-28T07:00:08;86387.13;;;16.03;39.34
65019;BME280;66069;51.164;-114.452;2023-02-28T07:02:36;86396.00;;;16.09;39.21
65019;BME280;66069;51.164;-114.452;2023-02-28T07:05:04;86414.56;;;16.18;39.07
65019;BME280;66069;51.164;-114.452;2023-02-28T07:07:30;86386.06;;;16.00;39.10
65019;BME280;66069;51.164;-114.452;2023-02-28T07:09:58;86389.44;;;16.01;39.12
65019;BME280;66069;51.164;-114.452;2023-02-28T07:12:24;86397.88;;;16.08;39.07
65019;BME280;66069;51.164;-114.452;2023-02-28T07:14:50;86376.75;;;15.96;39.25
65019;BME280;66069;51.164;-114.452;2023-02-28T07:17:37;86389.13;;;15.99;39.21
65019;BME280;66069;51.164;-114.452;2023-02-28T07:20:04;86389.63;;;16.06;39.13
65019;BME280;66069;51.164;-114.452;2023-02-28T07:22:30;86392.81;;;16.01;39.19
65019;BME280;66069;51.164;-114.452;2023-02-28T07:24:56;86404.66;;;16.09;39.08
65019;BME280;66069;51.164;-114.452;2023-02-28T07:27:42;86408.56;;;16.05;39.07
65019;BME280;66069;51.164;-114.452;2023-02-28T07:30:09;86385.34;;;15.87;39.24
65019;BME280;66069;51.164;-114.452;2023-02-28T07:32:36;86395.91;;;16.00;38.94
65019;BME280;66069;51.164;-114.452;2023-02-28T07:35:03;86386.59;;;15.95;39.10
65019;BME280;66069;51.164;-114.452;2023-02-28T07:37:30;86383.53;;;15.97;39.06
65019;BME280;66069;51.164;-114.452;2023-02-28T07:40:07;86390.19;;;16.01;38.86
65019;BME280;66069;51.164;-114.452;2023-02-28T07:42:35;86389.25;;;15.95;39.15
65019;BME280;66069;51.164;-114.452;2023-02-28T07:45:02;86401.38;;;16.05;39.06
65019;BME280;66069;51.164;-114.452;2023-02-28T07:47:32;86385.13;;;15.94;38.91
65019;BME280;66069;51.164;-114.452;2023-02-28T07:49:58;86399.19;;;16.04;38.96
65019;BME280;66069;51.164;-114.452;2023-02-28T07:52:25;86377.44;;;15.87;38.91
65019;BME280;66069;51.164;-114.452;2023-02-28T07:54:53;86379.97;;;15.91;38.87
65019;BME280;66069;51.164;-114.452;2023-02-28T07:57:19;86354.84;;;15.73;39.06
65019;BME280;66069;51.164;-114.452;2023-02-28T07:59:46;86377.88;;;15.85;38.95
65019;BME280;66069;51.164;-114.452;2023-02-28T08:02:16;86375.00;;;15.80;38.94
65019;BME280;66069;51.164;-114.452;2023-02-28T08:04:43;86376.78;;;15.83;39.12
65019;BME280;66069;51.164;-114.452;2023-02-28T08:07:12;86395.41;;;15.92;39.10
65019;BME280;66069;51.164;-114.452;2023-02-28T08:09:40;86384.81;;;15.92;38.89
65019;BME280;66069;51.164;-114.452;2023-02-28T08:12:07;86379.78;;;15.85;38.82
65019;BME280;66069;51.164;-114.452;2023-02-28T08:14:34;86364.25;;;15.74;38.96
65019;BME280;66069;51.164;-114.452;2023-02-28T08:17:00;86366.47;;;15.76;39.02
65019;BME280;66069;51.164;-114.452;2023-02-28T08:19:27;86367.94;;;15.77;38.82
65019;BME280;66069;51.164;-114.452;2023-02-28T08:21:55;86384.91;;;15.88;39.07
65019;BME280;66069;51.164;-114.452;2023-02-28T08:24:21;86370.25;;;15.75;38.75
65019;BME280;66069;51.164;-114.452;2023-02-28T08:27:08;86372.47;;;15.76;39.01
65019;BME280;66069;51.164;-114.452;2023-02-28T08:29:37;86363.22;;;15.72;38.91
65019;BME280;66069;51.164;-114.452;2023-02-28T08:32:05;86358.31;;;15.70;38.91
65019;BME280;66069;51.164;-114.452;2023-02-28T08:34:31;86364.34;;;15.71;38.88
65019;BME280;66069;51.164;-114.452;2023-02-28T08:36:58;86349.78;;;15.66;39.02
65019;BME280;66069;51.164;-114.452;2023-02-28T08:39:24;86355.47;;;15.65;38.84
65019;BME280;66069;51.164;-114.452;2023-02-28T08:41:51;86377.34;;;15.78;38.86
65019;BME280;66069;51.164;-114.452;2023-02-28T08:44:17;86356.66;;;15.64;38.90
65019;BME280;66069;51.164;-114.452;2023-02-28T08:46:44;86364.69;;;15.73;38.83
65019;BME280;66069;51.164;-114.452;2023-02-28T08:49:10;86376.59;;;15.77;38.71
65019;BME280;66069;51.164;-114.452;2023-02-28T08:51:38;86372.47;;;15.76;39.02
65019;BME280;66069;51.164;-114.452;2023-02-28T08:54:06;86357.38;;;15.64;38.86
65019;BME280;66069;51.164;-114.452;2023-02-28T08:56:33;86357.59;;;15.70;38.89
65019;BME280;66069;51.164;-114.452;2023-02-28T08:58:59;86337.31;;;15.54;38.90
65019;BME280;66069;51.164;-114.452;2023-02-28T09:01:27;86355.28;;;15.72;38.92
65019;BME280;66069;51.164;-114.452;2023-02-28T09:03:55;86355.47;;;15.65;38.91
65019;BME280;66069;51.164;-114.452;2023-02-28T09:06:24;86360.97;;;15.70;38.85
65019;BME280;66069;51.164;-114.452;2023-02-28T09:08:51;86353.47;;;15.69;38.78
65019;BME280;66069;51.164;-114.452;2023-02-28T09:11:18;86350.63;;;15.63;38.84
65019;BME280;66069;51.164;-114.452;2023-02-28T09:13:45;86339.97;;;15.54;38.67
65019;BME280;66069;51.164;-114.452;2023-02-28T09:16:14;86358.88;;;15.65;38.85
65019;BME280;66069;51.164;-114.452;2023-02-28T09:18:42;86348.09;;;15.59;38.72
65019;BME280;66069;51.164;-114.452;2023-02-28T09:21:10;86349.47;;;15.64;38.61
65019;BME280;66069;51.164;-114.452;2023-02-28T09:23:41;86336.25;;;15.51;38.77
65019;BME280;66069;51.164;-114.452;2023-02-28T09:26:08;86340.25;;;15.56;38.79
65019;BME280;66069;51.164;-114.452;2023-02-28T09:28:39;86330.66;;;15.49;38.34
65019;BME280;66069;51.164;-114.452;2023-02-28T09:31:05;86335.72;;;15.56;38.82
65019;BME280;66069;51.164;-114.452;2023-02-28T09:33:31;86319.06;;;15.47;38.87
65019;BME280;66069;51.164;-114.452;2023-02-28T09:36:00;86318.28;;;15.46;38.76
65019;BME280;66069;51.164;-114.452;2023-02-28T09:38:27;86323.91;;;15.48;38.50
65019;BME280;66069;51.164;-114.452;2023-02-28T09:41:03;86286.31;;;15.31;38.75
65019;BME280;66069;51.164;-114.452;2023-02-28T09:43:34;86322.22;;;15.54;38.59
65019;BME280;66069;51.164;-114.452;2023-02-28T09:46:33;86323.69;;;15.55;38.55
65019;BME280;66069;51.164;-114.452;2023-02-28T09:49:05;86310.50;;;15.43;38.53
65019;BME280;66069;51.164;-114.452;2023-02-28T09:51:53;86317.34;;;15.53;38.61
65019;BME280;66069;51.164;-114.452;2023-02-28T09:54:24;86305.22;;;15.43;38.80
65019;BME280;66069;51.164;-114.452;2023-02-28T09:59:53;86306.91;;;15.49;38.46
65019;BME280;66069;51.164;-114.452;2023-02-28T10:05:28;86294.34;;;15.41;38.55
65019;BME280;66069;51.164;-114.452;2023-02-28T10:08:27;86307.13;;;15.42;38.50
65019;BME280;66069;51.164;-114.452;2023-02-28T10:11:01;86305.22;;;15.43;38.76
65019;BME280;66069;51.164;-114.452;2023-02-28T10:13:50;86311.25;;;15.43;38.72
65019;BME280;66069;51.164;-114.452;2023-02-28T10:16:40;86298.59;;;15.25;38.69
65019;BME280;66069;51.164;-114.452;2023-02-28T10:19:22;86301.75;;;15.33;38.59
65019;BME280;66069;51.164;-114.452;2023-02-28T10:24:47;86301.53;;;15.27;38.46
65019;BME280;66069;51.164;-114.452;2023-02-28T10:27:22;86300.50;;;15.25;38.44
65019;BME280;66069;51.164;-114.452;2023-02-28T10:29:54;86296.91;;;15.19;38.86
65019;BME280;66069;51.164;-114.452;2023-02-28T10:32:27;86313.78;;;15.34;38.59
65019;BME280;66069;51.164;-114.452;2023-02-28T10:35:21;86297.66;;;15.19;38.66
65019;BME280;66069;51.164;-114.452;2023-02-28T10:37:49;86320.44;;;15.26;38.50
65019;BME280;66069;51.164;-114.452;2023-02-28T10:45:32;86312.84;;;15.15;38.57
65019;BME280;66069;51.164;-114.452;2023-02-28T10:51:08;86338.50;;;15.27;38.77
65019;BME280;66069;51.164;-114.452;2023-02-28T10:53:38;86321.09;;;15.17;38.51
65019;BME280;66069;51.164;-114.452;2023-02-28T10:58:58;86342.00;;;15.24;38.62
65019;BME280;66069;51.164;-114.452;2023-02-28T11:06:44;86325.31;;;15.15;38.95
65019;BME280;66069;51.164;-114.452;2023-02-28T11:09:22;86324.91;;;15.16;38.63
65019;BME280;66069;51.164;-114.452;2023-02-28T11:11:50;86311.38;;;15.01;38.54
65019;BME280;66069;51.164;-114.452;2023-02-28T11:14:30;86317.63;;;15.07;38.48
65019;BME280;66069;51.164;-114.452;2023-02-28T11:17:13;86314.47;;;15.00;38.29
65019;BME280;66069;51.164;-114.452;2023-02-28T11:19:46;86332.09;;;15.16;38.63
65019;BME280;66069;51.164;-114.452;2023-02-28T11:22:20;86314.97;;;15.07;38.81
65019;BME280;66069;51.164;-114.452;2023-02-28T11:24:51;86321.00;;;15.08;38.49
65019;BME280;66069;51.164;-114.452;2023-02-28T11:27:46;86331.03;;;15.13;38.37
65019;BME280;66069;51.164;-114.452;2023-02-28T11:30:29;86324.28;;;15.12;38.57
65019;BME280;66069;51.164;-114.452;2023-02-28T11:32:56;86318.56;;;15.01;38.43
65019;BME280;66069;51.164;-114.452;2023-02-28T11:35:39;86297.75;;;14.90;38.30
65019;BME280;66069;51.164;-114.452;2023-02-28T11:38:13;86304.41;;;14.95;38.45
65019;BME280;66069;51.164;-114.452;2023-02-28T11:46:45;86325.97;;;15.06;38.59
65019;BME280;66069;51.164;-114.452;2023-02-28T11:57:35;86330.19;;;15.03;38.41
65019;BME280;66069;51.164;-114.452;2023-02-28T12:03:02;86338.84;;;15.04;38.71
65019;BME280;66069;51.164;-114.452;2023-02-28T12:05:44;86334.31;;;15.04;38.62
65019;BME280;66069;51.164;-114.452;2023-02-28T12:08:23;86332.41;;;15.05;38.47
65019;BME280;66069;51.164;-114.452;2023-02-28T12:13:46;86323.75;;;15.04;38.84
65019;BME280;66069;51.164;-114.452;2023-02-28T12:18:53;86328.50;;;15.10;38.98
65019;BME280;66069;51.164;-114.452;2023-02-28T12:21:31;86325.88;;;15.10;39.02
65019;BME280;66069;51.164;-114.452;2023-02-28T12:26:58;86323.31;;;15.06;38.96
65019;BME280;66069;51.164;-114.452;2023-02-28T12:29:28;86326.47;;;15.14;38.88
65019;BME280;66069;51.164;-114.452;2023-02-28T12:32:05;86319.28;;;15.14;39.06
65019;BME280;66069;51.164;-114.452;2023-02-28T12:34:44;86309.81;;;15.04;39.04
65019;BME280;66069;51.164;-114.452;2023-02-28T12:37:41;86314.66;;;15.05;39.34
65019;BME280;66069;51.164;-114.452;2023-02-28T12:40:19;86323.41;;;15.15;39.16
65019;BME280;66069;51.164;-114.452;2023-02-28T12:42:52;86307.38;;;15.10;39.06
65019;BME280;66069;51.164;-114.452;2023-02-28T12:45:24;86329.31;;;15.19;39.21
65019;BME280;66069;51.164;-114.452;2023-02-28T12:48:07;86299.25;;;15.04;39.18
65019;BME280;66069;51.164;-114.452;2023-02-28T12:50:36;86298.84;;;15.05;39.25
65019;BME280;66069;51.164;-114.452;2023-02-28T12:53:13;86312.84;;;15.15;39.34
65019;BME280;66069;51.164;-114.452;2023-02-28T12:55:52;86321.63;;;15.25;39.18
65019;BME280;66069;51.164;-114.452;2023-02-28T12:58:27;86321.19;;;15.26;39.16
65019;BME280;66069;51.164;-114.452;2023-02-28T13:03:45;86315.91;;;15.26;39.18
65019;BME280;66069;51.164;-114.452;2023-02-28T13:06:43;86298.72;;;15.09;39.15
65019;BME280;66069;51.164;-114.452;2023-02-28T13:09:15;86255.69;;;14.74;39.13
65019;BME280;66069;51.164;-114.452;2023-02-28T13:19:57;86319.06;;;15.21;39.33
65019;BME280;66069;51.164;-114.452;2023-02-28T13:22:43;86327.41;;;15.32;39.37
65019;BME280;66069;51.164;-114.452;2023-02-28T13:27:50;86326.56;;;15.35;39.43
65019;BME280;66069;51.164;-114.452;2023-02-28T13:38:45;86333.31;;;15.49;39.63
65019;BME280;66069;51.164;-114.452;2023-02-28T13:49:25;86331.69;;;15.65;39.89
65019;BME280;66069;51.164;-114.452;2023-02-28T13:58:07;86349.31;;;15.80;40.15
65019;BME280;66069;51.164;-114.452;2023-02-28T14:11:41;86374.41;;;16.10;40.59
65019;BME280;66069;51.164;-114.452;2023-02-28T14:14:10;86371.88;;;16.07;40.68
65019;BME280;66069;51.164;-114.452;2023-02-28T14:16:56;86370.91;;;16.13;40.66
65019;BME280;66069;51.164;-114.452;2023-02-28T14:19:28;86356.50;;;16.14;40.64
65019;BME280;66069;51.164;-114.452;2023-02-28T14:41:36;86362.19;;;16.48;40.90
65019;BME280;66069;51.164;-114.452;2023-02-28T14:44:17;86386.44;;;16.68;40.73
65019;BME280;66069;51.164;-114.452;2023-02-28T14:46:45;86374.63;;;16.60;40.77
65019;BME280;66069;51.164;-114.452;2023-02-28T14:54:28;86381.66;;;16.76;40.82
65019;BME280;66069;51.164;-114.452;2023-02-28T14:56:55;86374.25;;;16.71;40.76
65019;BME280;66069;51.164;-114.452;2023-02-28T14:59:32;86396.31;;;16.89;40.78
65019;BME280;66069;51.164;-114.452;2023-02-28T15:02:21;86376.25;;;16.79;40.79
65019;BME280;66069;51.164;-114.452;2023-02-28T15:04:56;86395.31;;;16.96;40.78
65019;BME280;66069;51.164;-114.452;2023-02-28T15:07:23;86400.47;;;17.00;40.79
65019;BME280;66069;51.164;-114.452;2023-02-28T15:10:06;86396.53;;;17.04;40.67
65019;BME280;66069;51.164;-114.452;2023-02-28T15:12:33;86373.63;;;16.88;40.72
65019;BME280;66069;51.164;-114.452;2023-02-28T15:15:01;86388.84;;;16.97;40.64
65019;BME280;66069;51.164;-114.452;2023-02-28T15:17:27;86386.94;;;16.98;40.59
65019;BME280;66069;51.164;-114.452;2023-02-28T15:19:54;86400.94;;;17.07;40.52
65019;BME280;66069;51.164;-114.452;2023-02-28T15:22:30;86393.44;;;17.06;40.68
65019;BME280;66069;51.164;-114.452;2023-02-28T15:24:59;86402.91;;;17.16;40.56
65019;BME280;66069;51.164;-114.452;2023-02-28T15:27:28;86404.28;;;17.20;40.62
65019;BME280;66069;51.164;-114.452;2023-02-28T15:30:00;86409.44;;;17.24;40.55
65019;BME280;66069;51.164;-114.452;2023-02-28T15:32:36;86412.69;;;17.28;40.58
65019;BME280;66069;51.164;-114.452;2023-02-28T15:37:56;86404.28;;;17.20;40.45